Time;durP1;ratioP1;P1;durP2;ratioP2;P2;SDS_P1;SDS_P2;PMS_P1;PMS_P2;Temp;Humidity;BMP_temperature;BMP_pressure;BME280_temperature;BME280_humidity;BME280_pressure;Samples;Min_cycle;Max_cycle;Signal;HPM_P1;HPM_P2
2021/12/09 00:01:04;;;;;;;1.17;0.87;;;6.20;93.30;;;;;;5032992;28;20021;-72
2021/12/09 00:03:32;;;;;;;1.03;0.67;;;6.20;93.30;;;;;;5032554;28;20422;-72
2021/12/09 00:05:59;;;;;;;5.63;0.80;;;6.20;93.30;;;;;;5032606;28;20022;-72
2021/12/09 00:08:28;;;;;;;1.57;0.77;;;6.30;93.10;;;;;;5033048;28;20026;-69
2021/12/09 00:10:56;;;;;;;1.43;0.70;;;6.30;93.00;;;;;;5033065;28;20032;-72
2021/12/09 00:13:24;;;;;;;1.57;0.70;;;6.30;93.00;;;;;;5032968;28;20367;-70
2021/12/09 00:15:50;;;;;;;1.03;0.57;;;6.40;93.10;;;;;;5032702;28;20071;-70
2021/12/09 00:18:16;;;;;;;2.23;0.70;;;6.30;93.00;;;;;;5033095;28;20021;-72
2021/12/09 00:20:42;;;;;;;0.90;0.53;;;6.30;93.00;;;;;;5032756;28;20481;-71
2021/12/09 00:23:08;;;;;;;0.60;0.40;;;6.30;93.00;;;;;;5032846;28;20044;-69
2021/12/09 00:25:35;;;;;;;0.70;0.60;;;6.30;93.00;;;;;;5032897;28;20123;-70
2021/12/09 00:28:02;;;;;;;2.30;0.50;;;6.30;92.90;;;;;;5032778;28;20497;-70
2021/12/09 00:30:30;;;;;;;1.67;0.73;;;6.30;93.00;;;;;;5032801;28;20359;-70
2021/12/09 00:32:56;;;;;;;1.53;0.70;;;6.30;93.00;;;;;;5032672;28;20513;-70
2021/12/09 00:35:28;;;;;;;1.53;0.80;;;6.20;93.00;;;;;;5032548;28;20025;-70
2021/12/09 00:37:58;;;;;;;1.27;0.80;;;6.20;93.10;;;;;;5032551;28;20049;-70
2021/12/09 00:40:24;;;;;;;1.47;0.80;;;6.20;93.10;;;;;;5032679;28;20021;-70
2021/12/09 00:42:50;;;;;;;1.00;0.70;;;6.20;93.20;;;;;;5032651;28;20079;-70
2021/12/09 00:45:16;;;;;;;1.13;0.70;;;6.20;93.10;;;;;;5030945;28;20033;-70
2021/12/09 00:47:42;;;;;;;2.70;1.07;;;6.20;93.10;;;;;;5032463;28;20022;-70
2021/12/09 00:50:09;;;;;;;1.47;1.00;;;6.20;92.90;;;;;;5032224;28;20029;-71
2021/12/09 00:52:36;;;;;;;1.90;0.90;;;6.20;92.90;;;;;;5032712;28;20064;-71
2021/12/09 00:55:02;;;;;;;1.43;0.80;;;6.20;93.00;;;;;;5032400;28;20030;-71
2021/12/09 00:57:28;;;;;;;1.90;0.97;;;6.20;93.00;;;;;;5032556;28;20040;-72
2021/12/09 00:59:54;;;;;;;1.23;0.70;;;6.20;93.00;;;;;;5032629;28;20462;-72
2021/12/09 01:02:19;;;;;;;1.43;0.77;;;6.20;93.00;;;;;;5032395;28;20049;-73
2021/12/09 01:04:46;;;;;;;1.90;0.90;;;6.20;93.10;;;;;;5032440;28;20038;-71
2021/12/09 01:07:13;;;;;;;2.23;0.90;;;6.20;93.10;;;;;;5032483;28;20382;-72
2021/12/09 01:09:39;;;;;;;2.27;0.90;;;6.20;93.10;;;;;;5032243;28;20037;-71
2021/12/09 01:12:06;;;;;;;1.80;1.07;;;6.20;93.10;;;;;;5032512;28;20021;-71
2021/12/09 01:14:33;;;;;;;1.87;1.27;;;6.20;93.10;;;;;;5032407;28;20029;-71
2021/12/09 01:16:59;;;;;;;1.37;0.93;;;6.20;93.00;;;;;;5032134;28;20100;-71
2021/12/09 01:19:24;;;;;;;1.63;1.13;;;6.10;93.10;;;;;;5032436;28;20053;-72
2021/12/09 01:21:50;;;;;;;1.90;1.27;;;6.20;93.00;;;;;;5033147;28;20029;-71
2021/12/09 01:24:16;;;;;;;2.13;1.40;;;6.20;92.90;;;;;;5035909;28;20060;-71
2021/12/09 01:26:42;;;;;;;2.23;1.47;;;6.10;92.80;;;;;;5035859;28;20022;-72
2021/12/09 01:29:15;;;;;;;2.10;1.40;;;6.10;92.80;;;;;;5035471;28;20029;-72
2021/12/09 01:31:44;;;;;;;2.40;1.60;;;6.10;92.80;;;;;;5035705;28;20474;-72
2021/12/09 01:34:09;;;;;;;1.63;1.20;;;6.10;92.90;;;;;;5035810;28;20045;-71
2021/12/09 01:36:36;;;;;;;2.40;1.60;;;6.10;92.90;;;;;;5035939;28;20079;-72
2021/12/09 01:39:05;;;;;;;3.40;1.30;;;6.00;92.90;;;;;;5035513;28;20049;-72
2021/12/09 01:41:32;;;;;;;3.53;1.87;;;6.10;92.80;;;;;;5035353;28;20462;-72
2021/12/09 01:43:58;;;;;;;2.83;1.63;;;6.00;92.80;;;;;;5035270;28;20087;-73
2021/12/09 01:46:23;;;;;;;2.80;1.70;;;6.00;92.60;;;;;;5035223;28;20037;-73
2021/12/09 01:48:51;;;;;;;2.50;1.70;;;6.00;92.60;;;;;;5035513;28;20037;-72
2021/12/09 01:51:19;;;;;;;2.43;2.00;;;6.00;92.50;;;;;;5035385;28;20096;-72
2021/12/09 01:53:46;;;;;;;2.30;1.70;;;6.00;92.40;;;;;;5035615;28;20100;-72
2021/12/09 01:56:20;;;;;;;2.70;1.90;;;6.00;92.50;;;;;;5035527;28;20478;-73
2021/12/09 01:58:46;;;;;;;3.47;1.50;;;6.00;92.50;;;;;;5031750;28;20037;-72
2021/12/09 02:01:12;;;;;;;2.93;1.70;;;6.00;92.30;;;;;;5032287;28;20060;-72
2021/12/09 02:03:38;;;;;;;2.83;1.93;;;6.00;92.20;;;;;;5032500;28;20021;-72
2021/12/09 02:06:04;;;;;;;2.07;1.50;;;6.00;92.20;;;;;;5035171;28;20071;-71
2021/12/09 02:08:30;;;;;;;1.73;1.43;;;6.00;92.20;;;;;;5035305;28;20401;-71
2021/12/09 02:10:56;;;;;;;2.40;1.60;;;5.90;92.20;;;;;;5035012;28;20022;-71
2021/12/09 02:13:21;;;;;;;1.93;1.50;;;6.00;92.10;;;;;;5034596;28;20044;-72
2021/12/09 02:15:47;;;;;;;1.70;1.30;;;5.90;91.90;;;;;;5034748;28;20095;-71
2021/12/09 02:18:13;;;;;;;1.77;1.30;;;5.90;91.80;;;;;;5034822;28;20999;-71
2021/12/09 02:20:41;;;;;;;3.07;1.57;;;5.90;91.80;;;;;;5034347;28;20029;-71
2021/12/09 02:23:11;;;;;;;2.67;1.57;;;5.90;91.70;;;;;;5034615;28;20033;-71
2021/12/09 02:25:44;;;;;;;2.13;1.40;;;5.90;91.70;;;;;;5034768;28;20037;-71
2021/12/09 02:28:14;;;;;;;2.05;1.33;;;5.90;91.70;;;;;;5034372;28;20022;-70
2021/12/09 02:30:41;;;;;;;2.23;1.40;;;5.90;91.50;;;;;;5034457;28;20099;-71
2021/12/09 02:33:07;;;;;;;3.53;1.40;;;5.90;91.30;;;;;;5033840;28;20025;-71
2021/12/09 02:35:33;;;;;;;3.33;1.10;;;5.80;90.80;;;;;;5032631;28;20036;-72
2021/12/09 02:37:59;;;;;;;2.23;1.73;;;5.90;90.70;;;;;;5034469;28;20446;-71
2021/12/09 02:40:25;;;;;;;2.10;1.60;;;5.80;90.80;;;;;;5034604;28;20060;-71
2021/12/09 02:42:51;;;;;;;1.90;1.37;;;5.80;90.60;;;;;;5033887;28;20022;-71
2021/12/09 02:45:16;;;;;;;2.23;1.37;;;5.80;90.70;;;;;;5033910;28;20037;-71
2021/12/09 02:47:42;;;;;;;2.60;1.43;;;5.80;90.40;;;;;;5034070;28;20056;-71
2021/12/09 02:50:09;;;;;;;2.33;1.60;;;5.80;90.40;;;;;;5034085;28;20033;-71
2021/12/09 02:52:34;;;;;;;2.60;1.60;;;5.80;90.40;;;;;;5034155;28;20082;-71
2021/12/09 02:55:00;;;;;;;2.37;1.50;;;5.80;90.20;;;;;;5032828;28;20409;-71
2021/12/09 02:57:26;;;;;;;2.73;1.80;;;5.70;90.20;;;;;;5032678;28;20025;-71
2021/12/09 02:59:52;;;;;;;3.20;1.73;;;5.70;90.30;;;;;;5033781;28;20034;-71
2021/12/09 03:02:19;;;;;;;4.37;1.70;;;5.60;90.70;;;;;;5033478;28;20053;-71
2021/12/09 03:04:48;;;;;;;3.20;1.80;;;5.60;90.60;;;;;;5034076;28;20046;-71
2021/12/09 03:07:29;;;;;;;4.37;2.07;;;5.50;90.60;;;;;;5033904;28;20022;-71
2021/12/09 03:10:20;;;;;;;2.70;1.90;;;5.50;90.80;;;;;;5033775;28;20128;-71
2021/12/09 03:12:48;;;;;;;2.53;1.70;;;5.50;90.90;;;;;;5033982;28;20429;-71
2021/12/09 03:15:14;;;;;;;2.47;1.80;;;5.50;91.10;;;;;;5033846;28;20028;-71
2021/12/09 03:17:40;;;;;;;2.17;1.77;;;5.40;91.10;;;;;;5033714;28;20021;-71
2021/12/09 03:20:11;;;;;;;2.23;1.63;;;5.40;91.40;;;;;;5033511;28;20096;-71
2021/12/09 03:22:38;;;;;;;2.40;1.77;;;5.40;91.50;;;;;;5033297;28;20080;-70
2021/12/09 03:25:07;;;;;;;2.43;1.80;;;5.50;91.70;;;;;;5033722;28;20502;-72
2021/12/09 03:27:32;;;;;;;2.30;1.97;;;5.50;91.70;;;;;;5033772;28;20033;-71
2021/12/09 03:29:58;;;;;;;2.43;2.00;;;5.40;91.60;;;;;;5033536;28;20533;-71
2021/12/09 03:32:24;;;;;;;2.50;1.90;;;5.40;91.70;;;;;;5033515;28;20056;-71
2021/12/09 03:34:51;;;;;;;2.73;2.20;;;5.40;91.80;;;;;;5033377;28;20022;-73
2021/12/09 03:37:21;;;;;;;3.07;2.10;;;5.40;91.80;;;;;;5033727;28;20024;-71
2021/12/09 03:39:47;;;;;;;4.23;2.27;;;5.40;91.80;;;;;;5033418;28;20105;-71
2021/12/09 03:42:15;;;;;;;2.60;1.90;;;5.40;91.90;;;;;;5033109;28;20025;-71
2021/12/09 03:44:43;;;;;;;2.83;2.20;;;5.40;91.90;;;;;;5032482;28;20036;-71
2021/12/09 03:47:13;;;;;;;3.33;2.40;;;5.40;91.90;;;;;;5031978;28;20021;-71
2021/12/09 03:49:41;;;;;;;2.70;2.20;;;5.40;92.00;;;;;;5032909;28;20108;-71
2021/12/09 03:52:08;;;;;;;3.13;2.30;;;5.40;91.90;;;;;;5032669;28;20485;-71
2021/12/09 03:54:33;;;;;;;3.17;2.33;;;5.40;91.90;;;;;;5032845;28;20494;-72
2021/12/09 03:56:59;;;;;;;3.60;2.40;;;5.40;91.90;;;;;;5032932;28;20096;-71
2021/12/09 03:59:25;;;;;;;3.50;2.77;;;5.40;92.00;;;;;;5033167;28;20030;-71
2021/12/09 04:01:51;;;;;;;3.37;2.30;;;5.40;92.00;;;;;;5032672;28;20064;-71
2021/12/09 04:04:16;;;;;;;2.93;2.63;;;5.40;92.00;;;;;;5032871;28;20040;-71
2021/12/09 04:06:43;;;;;;;2.93;2.30;;;5.40;92.00;;;;;;5032953;28;20029;-71
2021/12/09 04:09:12;;;;;;;4.30;2.60;;;5.30;91.90;;;;;;5033052;28;20026;-71
2021/12/09 04:11:38;;;;;;;3.60;2.63;;;5.30;91.90;;;;;;5033001;28;20030;-72
2021/12/09 04:14:05;;;;;;;4.70;2.73;;;5.30;92.00;;;;;;5031780;28;20026;-71
2021/12/09 04:16:31;;;;;;;3.33;2.37;;;5.30;92.40;;;;;;5032922;28;20030;-71
2021/12/09 04:18:58;;;;;;;2.60;2.30;;;5.30;92.00;;;;;;5032734;28;20108;-71
2021/12/09 04:21:24;;;;;;;3.67;2.53;;;5.20;92.00;;;;;;5032379;28;20025;-71
2021/12/09 04:23:50;;;;;;;4.77;2.70;;;5.20;91.90;;;;;;5032684;28;20029;-72
2021/12/09 04:26:16;;;;;;;3.40;2.13;;;5.20;92.00;;;;;;5032882;28;20389;-71
2021/12/09 04:28:42;;;;;;;3.77;2.23;;;5.20;92.10;;;;;;5032629;28;20025;-71
2021/12/09 04:31:08;;;;;;;3.20;2.50;;;5.20;92.10;;;;;;5032350;28;20025;-72
2021/12/09 04:33:34;;;;;;;4.43;2.50;;;5.20;92.00;;;;;;5032773;28;20428;-71
2021/12/09 04:36:00;;;;;;;2.87;2.27;;;5.20;92.10;;;;;;5032694;28;20068;-71
2021/12/09 04:38:26;;;;;;;3.03;2.27;;;5.20;92.00;;;;;;5032737;28;20030;-72
2021/12/09 04:40:52;;;;;;;3.70;2.40;;;5.10;92.00;;;;;;5032749;28;20014;-71
2021/12/09 04:43:18;;;;;;;2.43;2.03;;;5.20;92.00;;;;;;5032924;28;20029;-72
2021/12/09 04:45:44;;;;;;;2.93;2.30;;;5.20;92.00;;;;;;5032545;28;20033;-71
2021/12/09 04:48:09;;;;;;;3.23;2.20;;;5.20;91.90;;;;;;5032676;28;20063;-71
2021/12/09 04:50:38;;;;;;;3.23;2.43;;;5.20;91.90;;;;;;5032742;28;20373;-72
2021/12/09 04:53:05;;;;;;;2.53;2.10;;;5.10;92.00;;;;;;5033735;28;20017;-72
2021/12/09 04:55:32;;;;;;;2.23;1.80;;;5.10;92.00;;;;;;5034188;28;20552;-71
2021/12/09 04:57:57;;;;;;;3.23;2.10;;;5.10;92.00;;;;;;5037690;28;20021;-72
2021/12/09 05:00:26;;;;;;;2.30;1.90;;;5.10;92.00;;;;;;5037989;28;20091;-71
2021/12/09 05:05:21;;;;;;;2.60;1.90;;;5.20;92.00;;;;;;5036313;28;20037;-71
2021/12/09 05:07:48;;;;;;;2.40;1.80;;;5.20;92.10;;;;;;5036308;28;20496;-71
2021/12/09 05:10:16;;;;;;;2.20;1.80;;;5.10;92.10;;;;;;5035063;28;20059;-72
2021/12/09 05:12:41;;;;;;;3.80;1.90;;;5.10;92.20;;;;;;5035766;28;20047;-71
2021/12/09 05:15:08;;;;;;;2.27;1.70;;;5.10;92.20;;;;;;5035120;28;20025;-71
2021/12/09 05:17:34;;;;;;;2.37;1.70;;;5.10;92.10;;;;;;5036394;28;20053;-72
2021/12/09 05:20:00;;;;;;;2.50;2.10;;;5.20;92.10;;;;;;5036087;28;20497;-72
2021/12/09 05:22:25;;;;;;;3.63;1.87;;;5.20;92.00;;;;;;5036395;28;20104;-71
2021/12/09 05:24:52;;;;;;;3.13;2.13;;;5.20;92.10;;;;;;5035747;28;20073;-71
2021/12/09 05:27:18;;;;;;;2.67;1.87;;;5.20;92.00;;;;;;5035865;28;20092;-71
2021/12/09 05:29:46;;;;;;;3.60;2.30;;;5.20;91.90;;;;;;5036129;28;20022;-71
2021/12/09 05:32:13;;;;;;;2.77;2.10;;;5.20;91.80;;;;;;5035961;28;20013;-71
2021/12/09 05:34:41;;;;;;;3.80;2.70;;;5.20;91.70;;;;;;5035739;28;20109;-71
2021/12/09 05:37:10;;;;;;;3.70;2.17;;;5.20;91.80;;;;;;5035871;28;20023;-71
2021/12/09 05:39:37;;;;;;;3.13;2.57;;;5.20;91.80;;;;;;5035770;28;20032;-71
2021/12/09 05:42:04;;;;;;;4.13;2.87;;;5.20;91.60;;;;;;5035659;28;20043;-71
2021/12/09 05:44:31;;;;;;;3.73;2.50;;;5.20;91.60;;;;;;5034286;28;20049;-71
2021/12/09 05:46:58;;;;;;;4.07;2.60;;;5.20;91.70;;;;;;5035526;28;20444;-71
2021/12/09 05:49:24;;;;;;;3.73;2.63;;;5.20;91.80;;;;;;5035294;28;20371;-71
2021/12/09 05:51:50;;;;;;;3.70;2.30;;;5.20;91.80;;;;;;5035261;28;20032;-71
2021/12/09 05:54:16;;;;;;;3.73;2.77;;;5.20;91.80;;;;;;5035697;28;20501;-71
2021/12/09 05:56:43;;;;;;;3.80;2.70;;;5.20;91.70;;;;;;5035517;28;20033;-72
2021/12/09 05:59:09;;;;;;;4.33;2.60;;;5.20;91.70;;;;;;5035079;28;20029;-71
2021/12/09 06:01:38;;;;;;;3.90;2.43;;;5.20;91.70;;;;;;5034991;28;20528;-71
2021/12/09 06:04:04;;;;;;;3.63;2.43;;;5.20;91.60;;;;;;5035234;28;20029;-72
2021/12/09 06:06:30;;;;;;;4.73;2.57;;;5.20;91.60;;;;;;5035118;28;20033;-72
2021/12/09 06:08:56;;;;;;;4.30;2.20;;;5.20;91.60;;;;;;5035006;28;20025;-72
2021/12/09 06:11:22;;;;;;;5.43;2.33;;;5.20;91.60;;;;;;5035121;28;20113;-71
2021/12/09 06:13:49;;;;;;;3.57;2.50;;;5.20;91.40;;;;;;5035215;28;20117;-71
2021/12/09 06:16:16;;;;;;;3.63;2.87;;;5.20;91.50;;;;;;5035042;28;20025;-71
2021/12/09 06:18:42;;;;;;;3.37;2.70;;;5.20;91.50;;;;;;5035114;28;20026;-71
2021/12/09 06:21:08;;;;;;;2.80;2.40;;;5.20;91.40;;;;;;5033241;28;20436;-71
2021/12/09 06:23:35;;;;;;;3.17;2.13;;;5.20;91.40;;;;;;5034625;28;20029;-70
2021/12/09 06:26:01;;;;;;;2.63;2.27;;;5.20;91.40;;;;;;5034749;28;20040;-71
2021/12/09 06:28:27;;;;;;;3.80;2.80;;;5.20;91.30;;;;;;5034416;28;20029;-71
2021/12/09 06:30:53;;;;;;;2.97;2.30;;;5.20;91.30;;;;;;5033499;28;20037;-73
2021/12/09 06:33:18;;;;;;;3.60;2.07;;;5.20;91.30;;;;;;5033853;28;20021;-71
2021/12/09 06:35:44;;;;;;;2.73;2.20;;;5.20;91.20;;;;;;5034625;28;20474;-71
2021/12/09 06:38:14;;;;;;;2.70;2.17;;;5.30;91.30;;;;;;5034227;28;20032;-72
2021/12/09 06:40:41;;;;;;;2.87;2.00;;;5.30;91.20;;;;;;5033987;28;20029;-71
2021/12/09 06:43:07;;;;;;;2.50;1.87;;;5.20;91.00;;;;;;5034466;28;20025;-72
2021/12/09 06:45:33;;;;;;;2.20;1.90;;;5.20;90.90;;;;;;5034298;28;20079;-71
2021/12/09 06:47:59;;;;;;;2.43;1.93;;;5.20;90.80;;;;;;5034376;28;20022;-71
2021/12/09 06:50:25;;;;;;;3.00;2.07;;;5.20;90.90;;;;;;5034028;28;20488;-71
2021/12/09 06:52:51;;;;;;;3.17;2.30;;;5.20;91.10;;;;;;5034298;28;20022;-71
2021/12/09 06:55:18;;;;;;;3.40;2.40;;;5.20;91.30;;;;;;5034013;28;20032;-70
2021/12/09 06:57:46;;;;;;;3.33;2.67;;;5.20;91.50;;;;;;5032983;28;20028;-71
2021/12/09 07:00:22;;;;;;;3.73;2.50;;;5.20;91.50;;;;;;5033608;28;20049;-71
2021/12/09 07:02:48;;;;;;;3.73;2.47;;;5.20;91.80;;;;;;5033383;28;20045;-72
2021/12/09 07:05:15;;;;;;;3.30;2.30;;;5.20;91.80;;;;;;5033609;28;20371;-72
2021/12/09 07:07:41;;;;;;;3.67;2.30;;;5.20;91.80;;;;;;5033406;28;20025;-72
2021/12/09 07:10:09;;;;;;;3.07;2.37;;;5.20;91.70;;;;;;5033779;28;20025;-82
2021/12/09 07:12:37;;;;;;;3.77;2.10;;;5.20;91.40;;;;;;5033873;28;20029;-81
2021/12/09 07:15:05;;;;;;;2.73;2.03;;;5.20;91.30;;;;;;5033307;28;20021;-81
2021/12/09 07:17:31;;;;;;;3.20;2.30;;;5.20;91.30;;;;;;5033079;28;20217;-76
2021/12/09 07:19:56;;;;;;;3.20;2.23;;;5.20;91.20;;;;;;5032918;28;20445;-77
2021/12/09 07:22:22;;;;;;;4.13;2.67;;;5.20;91.20;;;;;;5032808;28;20021;-80
2021/12/09 07:24:48;;;;;;;2.80;2.13;;;5.20;91.20;;;;;;5033383;28;20116;-80
2021/12/09 07:27:14;;;;;;;3.57;2.30;;;5.20;91.10;;;;;;5033472;28;20466;-79
2021/12/09 07:29:39;;;;;;;4.37;2.97;;;5.20;91.10;;;;;;5033613;28;20477;-75
2021/12/09 07:32:06;;;;;;;3.43;2.50;;;5.20;91.00;;;;;;5033692;28;20057;-82
2021/12/09 07:34:32;;;;;;;5.27;2.50;;;5.20;91.10;;;;;;5033858;28;20370;-81
2021/12/09 07:37:02;;;;;;;2.97;2.13;;;5.30;91.20;;;;;;5033506;28;20026;-81
2021/12/09 07:39:28;;;;;;;4.53;2.17;;;5.20;91.20;;;;;;5033609;28;20022;-82
2021/12/09 07:41:56;;;;;;;2.50;1.80;;;5.30;91.20;;;;;;5033917;28;20032;-82
2021/12/09 07:44:22;;;;;;;3.50;2.23;;;5.20;91.10;;;;;;5033600;28;20100;-79
2021/12/09 07:46:48;;;;;;;3.50;2.17;;;5.30;91.20;;;;;;5033555;28;20398;-80
2021/12/09 07:49:14;;;;;;;4.23;2.07;;;5.20;91.20;;;;;;5033658;28;20021;-81
2021/12/09 07:51:40;;;;;;;3.53;1.67;;;5.20;91.30;;;;;;5033343;28;20029;-81
2021/12/09 07:54:06;;;;;;;2.73;2.00;;;5.20;91.40;;;;;;5033442;28;20028;-82
2021/12/09 07:56:32;;;;;;;3.20;1.93;;;5.30;91.40;;;;;;5033338;28;20029;-81
2021/12/09 07:58:58;;;;;;;3.13;2.00;;;5.30;91.40;;;;;;5033383;28;20022;-73
2021/12/09 08:01:24;;;;;;;2.47;1.90;;;5.30;91.40;;;;;;5033031;28;20060;-81
2021/12/09 08:03:50;;;;;;;2.83;1.80;;;5.30;91.30;;;;;;5033229;28;20018;-74
2021/12/09 08:06:15;;;;;;;3.03;1.87;;;5.30;91.30;;;;;;5033198;28;20389;-82
2021/12/09 08:08:41;;;;;;;2.20;1.80;;;5.30;91.40;;;;;;5033279;28;20033;-74
2021/12/09 08:11:07;;;;;;;4.00;2.10;;;5.30;91.30;;;;;;5033214;28;20041;-75
2021/12/09 08:13:34;;;;;;;5.53;2.00;;;5.20;91.30;;;;;;5032682;28;20029;-75
2021/12/09 08:16:00;;;;;;;3.07;2.30;;;5.30;91.30;;;;;;5032699;28;20049;-78
2021/12/09 08:18:33;;;;;;;3.67;2.40;;;5.20;91.40;;;;;;5032600;28;20481;-79
2021/12/09 08:21:02;;;;;;;5.07;2.38;;;5.30;91.40;;;;;;5032787;28;20063;-78
2021/12/09 08:23:28;;;;;;;3.13;2.00;;;5.20;91.30;;;;;;5032744;28;20035;-73
2021/12/09 08:25:57;;;;;;;2.50;1.70;;;5.30;91.40;;;;;;5032460;28;20548;-72
2021/12/09 08:28:23;;;;;;;2.57;1.90;;;5.30;91.30;;;;;;5031989;28;20478;-72
2021/12/09 08:30:50;;;;;;;3.93;2.23;;;5.30;91.20;;;;;;5032722;28;20042;-72
2021/12/09 08:33:17;;;;;;;2.70;2.03;;;5.30;91.30;;;;;;5034760;28;20078;-72
2021/12/09 08:35:43;;;;;;;2.67;1.90;;;5.30;91.30;;;;;;5035517;28;20025;-72
2021/12/09 08:38:09;;;;;;;2.40;2.00;;;5.20;91.30;;;;;;5037820;28;20032;-72
2021/12/09 08:40:35;;;;;;;3.77;2.40;;;5.20;91.30;;;;;;5036650;28;20144;-73
2021/12/09 08:43:02;;;;;;;3.13;2.10;;;5.20;91.50;;;;;;5035427;28;20371;-72
2021/12/09 08:45:29;;;;;;;2.43;1.80;;;5.30;91.60;;;;;;5036702;28;20033;-72
2021/12/09 08:47:54;;;;;;;3.27;2.33;;;5.30;91.70;;;;;;5036929;28;20504;-72
2021/12/09 08:50:22;;;;;;;2.90;2.60;;;5.20;91.60;;;;;;5036765;28;20025;-72
2021/12/09 08:52:51;;;;;;;7.83;3.80;;;5.20;91.70;;;;;;5036382;28;20029;-72
2021/12/09 08:55:18;;;;;;;7.57;4.00;;;5.30;91.70;;;;;;5036821;28;20482;-72
2021/12/09 08:57:46;;;;;;;7.30;4.47;;;5.30;91.80;;;;;;5036620;28;20076;-72
2021/12/09 09:00:14;;;;;;;5.40;4.37;;;5.30;91.90;;;;;;5036254;28;20030;-74
2021/12/09 09:02:42;;;;;;;7.30;4.57;;;5.30;91.90;;;;;;5038202;28;20038;-72
2021/12/09 09:05:11;;;;;;;6.57;4.27;;;5.30;92.00;;;;;;5034743;28;20029;-72
2021/12/09 09:07:45;;;;;;;6.23;4.37;;;5.30;92.00;;;;;;5034978;28;20466;-72
2021/12/09 09:10:13;;;;;;;6.00;4.20;;;5.40;92.00;;;;;;5034643;28;20049;-73
2021/12/09 09:12:39;;;;;;;11.03;7.10;;;5.40;92.00;;;;;;5030797;28;20120;-72
2021/12/09 09:15:12;;;;;;;6.30;4.73;;;5.30;92.00;;;;;;5034111;28;20108;-73
2021/12/09 09:17:38;;;;;;;5.45;3.42;;;5.40;92.00;;;;;;5034476;28;20025;-72
2021/12/09 09:20:06;;;;;;;7.07;3.43;;;5.30;91.90;;;;;;5034663;28;20024;-73
2021/12/09 09:22:32;;;;;;;4.47;2.90;;;5.40;91.80;;;;;;5034584;28;20478;-73
2021/12/09 09:24:58;;;;;;;3.80;2.30;;;5.40;91.80;;;;;;5035363;28;20038;-72
2021/12/09 09:27:23;;;;;;;3.17;2.20;;;5.40;91.70;;;;;;5035741;28;20026;-72
2021/12/09 09:29:49;;;;;;;2.73;2.03;;;5.40;91.50;;;;;;5035958;28;20029;-71
2021/12/09 09:32:15;;;;;;;2.57;1.90;;;5.40;91.40;;;;;;5035702;28;20032;-72
2021/12/09 09:34:40;;;;;;;5.07;2.03;;;5.40;91.40;;;;;;5035671;28;20025;-72
2021/12/09 09:37:06;;;;;;;2.97;2.20;;;5.30;91.40;;;;;;5035392;28;20021;-72
2021/12/09 09:39:33;;;;;;;8.53;4.67;;;5.30;91.60;;;;;;5035696;28;20406;-71
2021/12/09 09:44:56;;;;;;;8.63;3.97;;;5.30;91.60;;;;;;5008228;28;20044;-71
2021/12/09 09:47:24;;;;;;;4.10;3.17;;;5.30;91.70;;;;;;5035097;28;20470;-71
2021/12/09 09:49:50;;;;;;;4.90;3.47;;;5.30;91.60;;;;;;5035662;28;20044;-72
2021/12/09 09:52:17;;;;;;;5.27;3.50;;;5.40;91.70;;;;;;5035464;28;20026;-71
2021/12/09 09:54:42;;;;;;;4.83;4.07;;;5.30;91.60;;;;;;5034701;28;20387;-72
2021/12/09 09:57:10;;;;;;;6.67;4.63;;;5.40;91.80;;;;;;5034554;28;20129;-71
2021/12/09 09:59:40;;;;;;;6.60;5.20;;;5.40;91.70;;;;;;5035124;28;20034;-72
2021/12/09 10:02:06;;;;;;;7.30;5.67;;;5.40;91.80;;;;;;5033524;28;20049;-71
2021/12/09 10:07:11;;;;;;;8.33;5.57;;;5.40;91.70;;;;;;5035492;28;20419;-71
2021/12/09 10:09:37;;;;;;;7.30;5.97;;;5.40;91.60;;;;;;5034482;28;20108;-72
2021/12/09 10:12:03;;;;;;;10.17;5.80;;;5.50;91.70;;;;;;5034944;28;20505;-71
2021/12/09 10:14:34;;;;;;;9.10;6.83;;;5.40;91.70;;;;;;5034549;28;20382;-72
2021/12/09 10:17:04;;;;;;;8.97;6.60;;;5.50;91.60;;;;;;5034423;28;20469;-72
2021/12/09 10:19:30;;;;;;;8.63;5.97;;;5.50;91.70;;;;;;5034095;28;20022;-72
2021/12/09 10:22:10;;;;;;;7.53;5.40;;;5.50;91.70;;;;;;5034048;28;20092;-72
2021/12/09 10:24:38;;;;;;;7.43;5.27;;;5.50;91.70;;;;;;5033970;28;20462;-72
2021/12/09 10:27:06;;;;;;;7.13;5.17;;;5.50;91.80;;;;;;5033700;28;20025;-72
2021/12/09 10:29:38;;;;;;;7.83;4.77;;;5.50;91.80;;;;;;5033820;28;20057;-72
2021/12/09 10:32:09;;;;;;;10.30;5.40;;;5.50;91.80;;;;;;5034953;28;20036;-71
2021/12/09 10:34:40;;;;;;;7.53;6.13;;;5.60;91.80;;;;;;5034606;28;20551;-72
2021/12/09 10:37:40;;;;;;;10.10;7.03;;;5.50;91.80;;;;;;5034767;28;20442;-71
2021/12/09 10:40:16;;;;;;;10.13;7.63;;;5.50;91.70;;;;;;5022919;28;20437;-71
2021/12/09 10:42:50;;;;;;;8.90;6.40;;;5.60;91.60;;;;;;5034599;28;20053;-72
2021/12/09 10:45:25;;;;;;;7.83;5.53;;;5.50;91.60;;;;;;5034331;28;20067;-72
2021/12/09 10:48:03;;;;;;;15.30;7.83;;;5.50;91.50;;;;;;5034781;28;20497;-73
2021/12/09 10:51:03;;;;;;;7.07;5.67;;;5.50;91.70;;;;;;5034273;28;20030;-72
2021/12/09 10:56:09;;;;;;;8.93;5.83;;;5.50;92.40;;;;;;5033202;28;20108;-71
2021/12/09 10:58:38;;;;;;;9.20;6.37;;;5.50;92.10;;;;;;5034245;28;20394;-71
2021/12/09 11:01:13;;;;;;;9.90;6.67;;;5.50;92.10;;;;;;5034106;28;20378;-71
2021/12/09 11:03:55;;;;;;;9.63;6.63;;;5.50;92.00;;;;;;5034218;28;20030;-70
2021/12/09 11:06:30;;;;;;;7.47;5.53;;;5.50;92.10;;;;;;5034118;28;20038;-71
2021/12/09 11:08:59;;;;;;;6.43;5.03;;;5.50;92.10;;;;;;5033898;28;20585;-70
2021/12/09 11:11:56;;;;;;;6.73;5.27;;;5.50;92.10;;;;;;5033861;28;20115;-71
2021/12/09 11:14:27;;;;;;;8.77;5.60;;;5.50;92.10;;;;;;5029747;28;20120;-71
2021/12/09 11:17:06;;;;;;;9.63;5.80;;;5.50;92.00;;;;;;5034034;28;20025;-70
2021/12/09 11:19:39;;;;;;;6.30;5.00;;;5.50;92.00;;;;;;5033859;28;20079;-71
2021/12/09 11:22:17;;;;;;;16.17;10.20;;;5.50;92.00;;;;;;5033125;28;20028;-71
2021/12/09 11:24:47;;;;;;;30.90;21.20;;;5.50;91.90;;;;;;5025522;28;20041;-71
2021/12/09 11:27:21;;;;;;;42.70;31.90;;;5.50;91.90;;;;;;5033500;28;20022;-71
2021/12/09 11:29:52;;;;;;;33.30;26.37;;;5.50;92.00;;;;;;5033163;28;20026;-72
2021/12/09 11:35:01;;;;;;;18.70;13.13;;;5.60;91.80;;;;;;5033750;28;20115;-71
2021/12/09 11:40:00;;;;;;;7.73;6.40;;;5.60;91.70;;;;;;5033325;28;20022;-72
2021/12/09 11:42:35;;;;;;;5.83;4.13;;;5.60;91.70;;;;;;5033518;28;20453;-72
2021/12/09 11:45:01;;;;;;;6.37;4.23;;;5.70;91.70;;;;;;5033586;28;20152;-72
2021/12/09 11:47:27;;;;;;;6.03;4.17;;;5.60;91.60;;;;;;5032949;28;20068;-71
2021/12/09 11:49:53;;;;;;;7.50;5.13;;;5.70;91.50;;;;;;5033380;28;20026;-76
2021/12/09 11:52:22;;;;;;;5.13;4.03;;;5.70;91.70;;;;;;5032788;28;20041;-76
2021/12/09 11:54:56;;;;;;;6.67;4.43;;;5.70;91.70;;;;;;5033093;28;20021;-73
2021/12/09 12:13:09;;;;;;;7.17;5.13;;;5.70;91.40;;;;;;5033265;28;20045;-72
2021/12/09 12:15:44;;;;;;;9.83;6.67;;;5.70;91.50;;;;;;5029888;28;20037;-82
2021/12/09 12:19:02;;;;;;;7.80;6.50;;;5.70;91.70;;;;;;5032908;28;20466;-80
2021/12/09 12:21:51;;;;;;;7.80;6.03;;;5.70;91.50;;;;;;5033239;28;20037;-82
2021/12/09 12:41:15;;;;;;;8.17;5.43;;;5.70;91.90;;;;;;5032669;28;20034;-80
2021/12/09 12:43:58;;;;;;;6.70;5.33;;;5.70;91.90;;;;;;5032750;28;20210;-86
2021/12/09 12:52:15;;;;;;;6.37;5.33;;;5.70;91.90;;;;;;5033177;28;20122;-83
2021/12/09 12:54:58;;;;;;;6.87;5.57;;;5.80;91.90;;;;;;5032964;28;20397;-85
2021/12/09 12:57:43;;;;;;;6.90;5.70;;;5.70;92.00;;;;;;5032867;28;20435;-84
2021/12/09 13:00:18;;;;;;;14.57;8.77;;;5.80;92.00;;;;;;5032770;28;20032;-84
2021/12/09 13:03:24;;;;;;;66.23;39.00;;;5.70;92.10;;;;;;5031899;28;20559;-82
2021/12/09 13:05:57;;;;;;;35.37;24.57;;;5.80;92.20;;;;;;5041286;28;20040;-80
2021/12/09 13:11:41;;;;;;;10.20;7.67;;;5.80;92.40;;;;;;4991988;28;20102;-85
2021/12/09 13:14:16;;;;;;;7.80;6.53;;;5.80;92.30;;;;;;4991234;28;20117;-85
2021/12/09 13:17:17;;;;;;;8.53;6.30;;;5.80;92.30;;;;;;5024647;28;20033;-85
2021/12/09 13:20:07;;;;;;;17.90;10.13;;;5.80;92.30;;;;;;5056713;28;20029;-83
2021/12/09 13:22:38;;;;;;;17.20;10.87;;;5.80;92.30;;;;;;5055908;28;20033;-83
2021/12/09 13:25:23;;;;;;;16.43;11.13;;;5.80;92.20;;;;;;5055932;28;20033;-83
2021/12/09 13:27:59;;;;;;;12.07;8.77;;;5.80;92.20;;;;;;5056233;28;20014;-84
2021/12/09 13:34:18;;;;;;;10.60;7.10;;;5.80;92.10;;;;;;5014171;28;20041;-85
2021/12/09 13:37:04;;;;;;;13.00;9.67;;;5.80;92.10;;;;;;5013138;28;20034;-80
2021/12/09 13:40:05;;;;;;;14.60;11.40;;;5.80;92.30;;;;;;5046721;28;20033;-81
2021/12/09 13:47:45;;;;;;;6.30;4.93;;;5.80;92.30;;;;;;5055476;28;20035;-82
2021/12/09 13:55:29;;;;;;;5.77;4.90;;;5.80;92.40;;;;;;5055268;28;20032;-81
2021/12/09 13:58:07;;;;;;;8.13;6.27;;;5.80;92.60;;;;;;5054685;28;20499;-82
2021/12/09 14:00:40;;;;;;;10.57;6.97;;;5.80;92.60;;;;;;5055150;28;20446;-83
2021/12/09 14:03:08;;;;;;;12.63;6.10;;;5.80;92.50;;;;;;5054991;28;20049;-86
2021/12/09 14:05:50;;;;;;;11.03;7.03;;;5.70;92.60;;;;;;5055234;28;20120;-86
2021/12/09 14:08:35;;;;;;;12.20;7.47;;;5.80;92.60;;;;;;5055608;28;20033;-84
2021/12/09 14:11:31;;;;;;;9.30;6.03;;;5.70;92.50;;;;;;5055215;28;20040;-84
2021/12/09 14:14:08;;;;;;;6.47;4.10;;;5.80;92.40;;;;;;5049481;28;20044;-83
2021/12/09 14:16:48;;;;;;;5.57;4.00;;;5.70;92.30;;;;;;5054851;28;20060;-81